Time;durP1;ratioP1;P1;durP2;ratioP2;P2;SDS_P1;SDS_P2;PMS_P1;PMS_P2;Temp;Humidity;BMP_temperature;BMP_pressure;BME280_temperature;BME280_humidity;BME280_pressure;Samples;Min_cycle;Max_cycle;Signal;HPM_P1;HPM_P2
2022/12/09 00:02:03;;;;;;;34.70;22.30;;;;;;;2.76;81.38;94568.25;4931567;29;20208;-81
2022/12/09 00:04:30;;;;;;;32.10;22.90;;;;;;;2.81;80.88;94562.72;4932360;29;20205;-79
2022/12/09 00:06:56;;;;;;;34.63;23.20;;;;;;;2.70;81.33;94557.91;4931405;29;20197;-80
2022/12/09 00:09:24;;;;;;;31.23;22.50;;;;;;;2.57;81.79;94568.50;4931254;29;20700;-80
2022/12/09 00:11:51;;;;;;;34.77;23.07;;;;;;;2.53;82.57;94562.13;4932032;29;20228;-80
2022/12/09 00:14:18;;;;;;;35.30;24.43;;;;;;;2.57;82.14;94552.47;4931608;29;20710;-81
2022/12/09 00:16:45;;;;;;;37.13;23.90;;;;;;;2.59;82.30;94548.03;4932295;29;20212;-80
2022/12/09 00:19:11;;;;;;;34.67;23.10;;;;;;;2.60;81.82;94549.63;4932075;29;20201;-80
2022/12/09 00:21:38;;;;;;;33.27;22.03;;;;;;;2.57;81.87;94547.38;4932436;29;20221;-79
2022/12/09 00:24:06;;;;;;;37.90;22.27;;;;;;;2.58;81.94;94548.97;4932099;29;20217;-80
2022/12/09 00:26:34;;;;;;;32.10;21.20;;;;;;;2.59;82.18;94551.38;4931185;29;20670;-80
2022/12/09 00:29:01;;;;;;;30.03;21.43;;;;;;;2.64;81.88;94553.47;4931632;29;20208;-81
2022/12/09 00:31:31;;;;;;;30.57;20.80;;;;;;;2.65;81.38;94544.91;4931647;29;20229;-81
2022/12/09 00:33:59;;;;;;;31.50;21.90;;;;;;;2.68;80.96;94532.69;4932006;29;20284;-79
2022/12/09 00:36:27;;;;;;;33.80;22.20;;;;;;;2.56;81.37;94516.09;4931607;29;20202;-81
2022/12/09 00:38:55;;;;;;;30.67;21.87;;;;;;;2.45;81.27;94518.16;4924663;29;20197;-79
2022/12/09 00:41:21;;;;;;;29.53;21.77;;;;;;;2.38;81.24;94513.66;4931626;29;20854;-81
2022/12/09 00:43:49;;;;;;;30.10;21.23;;;;;;;2.37;82.15;94507.00;4923350;29;20201;-79
2022/12/09 00:46:16;;;;;;;43.07;22.90;;;;;;;2.34;82.29;94509.84;4931271;29;20202;-81
2022/12/09 00:48:44;;;;;;;30.63;21.63;;;;;;;2.37;81.94;94507.00;4930803;29;20220;-81
2022/12/09 00:51:14;;;;;;;30.30;20.83;;;;;;;2.42;81.91;94511.63;4926437;29;20218;-81
2022/12/09 00:53:41;;;;;;;27.67;21.13;;;;;;;2.50;81.24;94514.19;4934256;29;20214;-80
2022/12/09 00:56:08;;;;;;;31.20;22.03;;;;;;;2.45;81.01;94505.44;4935072;29;20193;-81
2022/12/09 00:58:34;;;;;;;33.27;21.60;;;;;;;2.50;80.73;94498.16;4934467;29;20290;-79
2022/12/09 01:01:02;;;;;;;29.03;21.10;;;;;;;2.52;80.26;94499.56;4935468;29;20224;-80
2022/12/09 01:03:29;;;;;;;29.07;20.60;;;;;;;2.53;79.97;94496.09;4935483;29;20197;-79
2022/12/09 01:05:55;;;;;;;30.37;21.37;;;;;;;2.51;80.04;94503.06;4934963;29;20994;-80
2022/12/09 01:08:22;;;;;;;30.90;21.77;;;;;;;2.51;80.21;94490.38;4935395;29;20205;-81
2022/12/09 01:10:49;;;;;;;30.00;21.60;;;;;;;2.43;80.45;94485.28;4935562;29;20229;-81
2022/12/09 01:13:16;;;;;;;29.20;20.97;;;;;;;2.37;80.45;94501.91;4935349;29;20225;-81
2022/12/09 01:15:43;;;;;;;32.40;21.20;;;;;;;2.41;80.47;94494.78;4935392;29;20197;-79
2022/12/09 01:18:11;;;;;;;28.17;21.20;;;;;;;2.48;80.28;94500.06;4935135;29;20583;-80
2022/12/09 01:20:38;;;;;;;29.20;20.90;;;;;;;2.49;79.36;94504.19;4997716;23;20245;-81
2022/12/09 01:23:05;;;;;;;30.97;21.40;;;;;;;2.38;79.50;94502.72;5052322;28;20641;-81
2022/12/09 01:25:31;;;;;;;33.27;22.03;;;;;;;2.37;79.31;94501.91;5035528;28;20687;-80
2022/12/09 01:27:58;;;;;;;33.07;22.67;;;;;;;2.35;79.45;94500.47;5043697;28;20194;-80
2022/12/09 01:30:24;;;;;;;33.57;23.67;;;;;;;2.38;78.99;94488.28;5045140;28;20301;-81
2022/12/09 01:32:51;;;;;;;32.00;23.10;;;;;;;2.41;79.23;94492.25;5047283;28;20285;-80
2022/12/09 01:35:18;;;;;;;33.13;23.40;;;;;;;2.39;78.61;94504.31;5050276;28;20202;-79
2022/12/09 01:37:45;;;;;;;34.40;23.30;;;;;;;2.37;78.49;94494.28;5034293;28;20202;-79
2022/12/09 01:40:16;;;;;;;32.43;23.50;;;;;;;2.35;78.58;94487.78;5046923;28;20210;-80
2022/12/09 01:42:42;;;;;;;32.20;22.90;;;;;;;2.33;78.63;94477.75;5042433;28;20272;-79
2022/12/09 01:45:38;;;;;;;35.67;23.10;;;;;;;2.24;78.79;94483.78;5050652;28;20197;-80
2022/12/09 01:48:10;;;;;;;30.90;22.77;;;;;;;2.19;79.10;94477.56;5033786;28;20222;-79
2022/12/09 01:50:41;;;;;;;32.90;22.33;;;;;;;2.15;79.19;94471.97;5036631;28;20221;-81
2022/12/09 01:53:07;;;;;;;30.97;22.57;;;;;;;2.16;79.31;94467.69;5031845;28;20222;-80
2022/12/09 01:55:35;;;;;;;49.17;24.43;;;;;;;2.09;79.06;94457.38;5038635;28;20202;-80
2022/12/09 01:58:02;;;;;;;31.30;22.10;;;;;;;1.99;79.16;94449.88;5037061;28;20724;-80
2022/12/09 02:00:28;;;;;;;47.50;24.00;;;;;;;1.84;79.91;94464.06;5024225;28;20730;-80
2022/12/09 02:02:56;;;;;;;35.03;23.50;;;;;;;1.90;79.94;94467.75;5046004;28;20281;-80
2022/12/09 02:05:24;;;;;;;39.93;24.33;;;;;;;1.81;80.27;94456.75;5039730;28;20206;-80
2022/12/09 02:07:52;;;;;;;46.57;23.33;;;;;;;1.63;80.83;94451.75;5032049;28;20206;-81
2022/12/09 02:10:20;;;;;;;35.43;24.07;;;;;;;1.65;81.31;94462.53;5030169;28;20601;-80
2022/12/09 02:12:55;;;;;;;71.43;25.10;;;;;;;1.71;81.12;94456.88;5036382;28;20225;-80
2022/12/09 02:15:25;;;;;;;92.40;26.83;;;;;;;1.73;80.70;94437.22;5029096;28;20205;-79
2022/12/09 02:17:56;;;;;;;39.60;23.50;;;;;;;1.76;80.83;94427.72;5035712;28;20204;-81
2022/12/09 02:20:29;;;;;;;36.93;22.23;;;;;;;1.82;80.75;94432.19;5041114;28;20225;-80
2022/12/09 02:23:04;;;;;;;31.10;22.37;;;;;;;1.79;80.13;94438.34;5039133;28;20197;-80
2022/12/09 02:25:37;;;;;;;31.17;23.03;;;;;;;1.80;80.76;94431.53;5040448;28;20197;-80
2022/12/09 02:28:29;;;;;;;34.47;23.30;;;;;;;1.79;80.89;94428.22;5037611;28;20213;-79
2022/12/09 02:31:10;;;;;;;33.50;23.27;;;;;;;1.70;81.43;94427.38;5041848;28;20714;-79
2022/12/09 02:33:43;;;;;;;34.10;23.57;;;;;;;1.73;81.00;94424.53;5041038;28;20206;-79
2022/12/09 02:36:17;;;;;;;33.07;23.40;;;;;;;1.85;80.92;94442.84;5036112;28;20196;-80
2022/12/09 02:38:44;;;;;;;33.80;23.77;;;;;;;1.93;80.22;94434.44;5042363;28;20190;-79
2022/12/09 02:41:15;;;;;;;33.90;22.77;;;;;;;1.95;80.02;94433.34;5042996;28;20210;-79
2022/12/09 02:43:45;;;;;;;30.47;22.53;;;;;;;1.98;79.65;94440.66;5035242;28;20186;-80
2022/12/09 02:46:13;;;;;;;35.50;22.97;;;;;;;1.96;79.51;94422.25;5037820;28;20202;-81
2022/12/09 02:48:43;;;;;;;35.20;23.33;;;;;;;1.90;80.07;94412.72;5034110;28;20591;-80
2022/12/09 02:51:13;;;;;;;33.87;23.23;;;;;;;1.96;79.88;94419.72;5032030;28;20225;-81
2022/12/09 02:53:41;;;;;;;31.50;23.13;;;;;;;2.00;80.18;94417.66;5035284;28;20214;-81
2022/12/09 02:56:08;;;;;;;29.63;21.37;;;;;;;1.91;80.21;94413.53;5049454;28;20190;-79
2022/12/09 02:58:35;;;;;;;28.83;20.87;;;;;;;1.96;80.19;94411.31;5036549;28;20226;-81
2022/12/09 03:01:02;;;;;;;31.60;21.00;;;;;;;1.94;80.52;94408.91;5034784;28;20280;-81
2022/12/09 03:03:33;;;;;;;31.53;21.63;;;;;;;1.98;79.93;94399.25;5046567;28;20286;-80
2022/12/09 03:06:04;;;;;;;32.33;22.80;;;;;;;1.94;79.76;94385.28;5039175;28;20190;-80
2022/12/09 03:08:42;;;;;;;29.50;21.67;;;;;;;1.97;79.94;94392.59;5037566;28;20198;-80
2022/12/09 03:11:11;;;;;;;30.23;21.40;;;;;;;1.99;79.76;94383.88;5044657;28;20213;-80
2022/12/09 03:13:46;;;;;;;26.77;19.67;;;;;;;1.93;79.61;94384.47;5041622;28;20226;-80
2022/12/09 03:16:20;;;;;;;24.60;18.53;;;;;;;1.90;80.17;94384.03;5048988;28;20201;-79
2022/12/09 03:18:53;;;;;;;25.00;18.60;;;;;;;1.81;80.51;94392.53;5037077;28;20194;-80
2022/12/09 03:21:22;;;;;;;27.07;19.50;;;;;;;1.87;80.51;94390.19;5031822;28;20222;-79
2022/12/09 03:23:52;;;;;;;24.37;19.57;;;;;;;1.95;79.90;94389.41;5033690;28;20194;-81
2022/12/09 03:26:19;;;;;;;28.07;18.87;;;;;;;2.04;79.27;94388.50;5043404;28;20574;-81
2022/12/09 03:28:50;;;;;;;25.70;18.63;;;;;;;2.09;79.00;94388.84;5047413;28;20193;-79
2022/12/09 03:31:21;;;;;;;24.90;17.80;;;;;;;2.09;78.83;94386.31;5045049;28;20209;-79
2022/12/09 03:33:52;;;;;;;22.73;17.53;;;;;;;2.04;78.94;94376.59;5041483;28;20218;-80
2022/12/09 03:36:22;;;;;;;23.83;17.77;;;;;;;1.97;78.74;94370.53;5032587;28;20186;-80
2022/12/09 03:38:52;;;;;;;22.83;17.73;;;;;;;1.97;78.82;94367.22;5039247;28;20198;-80
2022/12/09 03:41:26;;;;;;;24.43;17.77;;;;;;;2.00;78.44;94375.31;5050049;28;20213;-80
2022/12/09 03:43:55;;;;;;;23.73;17.67;;;;;;;1.94;78.37;94370.84;5035845;28;20207;-79
2022/12/09 03:46:22;;;;;;;24.13;17.93;;;;;;;1.94;78.97;94363.22;5035168;28;20257;-80
2022/12/09 03:48:49;;;;;;;22.77;17.50;;;;;;;1.89;79.14;94367.19;5042448;28;20194;-81
2022/12/09 03:51:21;;;;;;;24.47;17.27;;;;;;;1.92;79.00;94354.22;5047562;28;20225;-81
2022/12/09 03:53:55;;;;;;;23.47;17.13;;;;;;;1.92;79.13;94349.94;5030639;28;20253;-79
2022/12/09 03:56:26;;;;;;;25.10;18.20;;;;;;;1.88;78.85;94347.84;5029759;28;20208;-80
2022/12/09 03:58:55;;;;;;;22.00;16.40;;;;;;;1.87;79.14;94346.25;5045659;28;20596;-81
2022/12/09 04:01:23;;;;;;;21.33;16.60;;;;;;;1.94;79.17;94342.13;5042650;28;20217;-81
2022/12/09 04:03:52;;;;;;;20.23;16.17;;;;;;;1.96;79.28;94342.78;5035674;28;20185;-81
2022/12/09 04:06:19;;;;;;;22.73;17.27;;;;;;;1.98;79.06;94353.56;5034462;28;20769;-79
2022/12/09 04:08:45;;;;;;;21.77;16.63;;;;;;;1.94;79.25;94348.00;5036201;28;20614;-80
2022/12/09 04:11:14;;;;;;;22.20;16.73;;;;;;;1.97;79.02;94357.06;5042369;28;20217;-81
2022/12/09 04:13:40;;;;;;;19.40;15.70;;;;;;;2.03;78.75;94354.72;5034124;28;20218;-80
2022/12/09 04:16:08;;;;;;;23.97;16.50;;;;;;;1.91;79.09;94347.53;5027127;28;20662;-81
2022/12/09 04:18:34;;;;;;;21.43;16.70;;;;;;;1.92;78.99;94342.31;5030722;28;20233;-80
2022/12/09 04:21:05;;;;;;;21.77;16.23;;;;;;;1.93;79.01;94340.53;5028040;28;20226;-81
2022/12/09 04:23:32;;;;;;;26.03;16.97;;;;;;;1.98;79.06;94331.53;5022746;28;20199;-79
2022/12/09 04:25:58;;;;;;;22.00;17.00;;;;;;;1.84;79.20;94328.81;5050383;28;20198;-81
2022/12/09 04:28:26;;;;;;;22.13;17.17;;;;;;;1.71;80.35;94324.16;5041488;28;20611;-81
2022/12/09 04:30:52;;;;;;;20.57;15.80;;;;;;;1.80;80.47;94327.50;5033659;28;20221;-81
2022/12/09 04:33:19;;;;;;;21.73;16.73;;;;;;;1.90;80.39;94325.66;5038662;28;20321;-81
2022/12/09 04:35:45;;;;;;;21.40;16.07;;;;;;;1.95;80.42;94321.69;5045701;28;20197;-80
2022/12/09 04:38:12;;;;;;;19.47;14.07;;;;;;;2.02;79.94;94312.50;5048425;28;20220;-81
2022/12/09 04:40:38;;;;;;;20.27;14.77;;;;;;;2.03;80.55;94308.22;5032334;28;20218;-81
2022/12/09 04:43:05;;;;;;;16.40;13.03;;;;;;;2.13;79.98;94300.44;5031463;28;20186;-81
2022/12/09 04:45:33;;;;;;;17.00;13.50;;;;;;;2.16;79.60;94295.06;5036444;28;20201;-80
2022/12/09 04:48:00;;;;;;;17.20;13.27;;;;;;;2.17;79.42;94287.31;5040529;28;20221;-81
2022/12/09 04:50:26;;;;;;;16.20;12.87;;;;;;;2.26;79.48;94293.19;5034584;28;20213;-79
2022/12/09 04:52:53;;;;;;;15.60;11.83;;;;;;;2.30;79.36;94297.81;5047625;28;20218;-80
2022/12/09 04:55:20;;;;;;;15.30;10.63;;;;;;;2.32;79.04;94300.94;5030543;28;20191;-80
2022/12/09 04:57:46;;;;;;;15.47;11.30;;;;;;;2.35;79.10;94302.38;5038408;28;20198;-81
2022/12/09 05:00:13;;;;;;;13.90;11.10;;;;;;;2.31;78.71;94294.28;5036860;28;20218;-80
2022/12/09 05:02:41;;;;;;;12.53;10.67;;;;;;;2.37;78.92;94298.75;5030518;28;20194;-81
2022/12/09 05:05:09;;;;;;;15.53;10.77;;;;;;;2.37;78.75;94296.22;5037989;28;20202;-79
2022/12/09 05:07:35;;;;;;;14.13;10.83;;;;;;;2.39;78.80;94294.31;5041386;28;20575;-79
2022/12/09 05:10:01;;;;;;;14.33;10.77;;;;;;;2.41;78.78;94292.41;5043414;28;20578;-81
2022/12/09 05:12:32;;;;;;;12.33;10.37;;;;;;;2.43;78.71;94297.31;5030689;28;20226;-79
2022/12/09 05:14:58;;;;;;;12.47;9.93;;;;;;;2.34;79.26;94296.50;5042855;28;20661;-81
2022/12/09 05:17:25;;;;;;;14.97;10.23;;;;;;;2.36;79.50;94294.63;5032860;28;20194;-80
2022/12/09 05:19:53;;;;;;;11.63;8.87;;;;;;;2.38;79.41;94289.38;5040520;28;20207;-80
2022/12/09 05:22:19;;;;;;;10.63;8.87;;;;;;;2.42;79.17;94286.38;5043974;28;20194;-80
2022/12/09 05:24:46;;;;;;;10.77;8.90;;;;;;;2.46;79.13;94293.69;5030023;28;20206;-80
2022/12/09 05:27:14;;;;;;;12.33;9.13;;;;;;;2.45;78.85;94287.00;5048198;28;20335;-80
2022/12/09 05:29:40;;;;;;;12.10;10.17;;;;;;;2.16;79.40;94284.91;5036772;28;20209;-80
2022/12/09 05:32:07;;;;;;;12.00;9.67;;;;;;;2.18;80.18;94283.03;5031174;28;20201;-79
2022/12/09 05:34:34;;;;;;;12.87;10.07;;;;;;;2.09;80.84;94277.16;5034107;28;20205;-81
2022/12/09 05:37:02;;;;;;;11.37;9.70;;;;;;;2.00;81.28;94271.25;5043057;28;20560;-81
2022/12/09 05:39:29;;;;;;;13.83;10.23;;;;;;;2.09;80.95;94269.53;5038820;28;20653;-81
2022/12/09 05:41:55;;;;;;;12.00;9.87;;;;;;;2.20;81.29;94276.84;5026860;28;20229;-79
2022/12/09 05:44:22;;;;;;;11.83;9.50;;;;;;;2.29;80.56;94268.28;5021912;28;20209;-79
2022/12/09 05:46:48;;;;;;;11.87;9.73;;;;;;;2.23;80.31;94265.56;5030622;28;20198;-79
2022/12/09 05:49:15;;;;;;;12.37;9.63;;;;;;;2.00;80.87;94261.09;5024276;28;20198;-80
2022/12/09 05:51:42;;;;;;;19.07;10.17;;;;;;;1.91;81.61;94268.88;5030680;28;20326;-78
2022/12/09 05:54:10;;;;;;;12.43;9.73;;;;;;;1.89;81.84;94271.56;5030004;28;20532;-81
2022/12/09 05:56:36;;;;;;;11.90;9.53;;;;;;;2.00;81.62;94266.19;5031666;28;20221;-81
2022/12/09 05:59:03;;;;;;;12.20;8.97;;;;;;;2.12;81.56;94253.97;5030344;28;20194;-79
2022/12/09 06:01:29;;;;;;;12.60;9.20;;;;;;;2.26;80.81;94250.81;5030220;28;20226;-80
2022/12/09 06:03:57;;;;;;;10.27;8.73;;;;;;;2.12;81.38;94248.91;5031309;28;20191;-80
2022/12/09 06:06:26;;;;;;;13.07;9.27;;;;;;;2.12;81.14;94251.44;5031358;28;20203;-80
2022/12/09 06:08:55;;;;;;;12.43;9.20;;;;;;;2.03;81.91;94254.94;5030182;28;20197;-80
2022/12/09 06:11:23;;;;;;;11.83;9.13;;;;;;;2.10;81.94;94250.81;5030832;28;20273;-79
2022/12/09 06:13:51;;;;;;;10.67;8.90;;;;;;;2.23;81.40;94256.22;5030286;28;20226;-81
2022/12/09 06:16:19;;;;;;;12.97;9.10;;;;;;;2.35;81.09;94254.13;5030841;28;20194;-80
2022/12/09 06:18:46;;;;;;;12.63;9.83;;;;;;;2.40;80.69;94245.09;5027739;28;20210;-80
2022/12/09 06:21:14;;;;;;;11.10;9.27;;;;;;;2.43;80.83;94244.00;5030132;28;20226;-81
2022/12/09 06:23:42;;;;;;;11.67;9.50;;;;;;;2.49;80.60;94245.91;5030939;28;20190;-81
2022/12/09 06:26:15;;;;;;;12.67;9.50;;;;;;;2.49;79.96;94242.56;5031360;28;20205;-80
2022/12/09 06:28:43;;;;;;;11.20;9.23;;;;;;;2.51;79.64;94223.66;5030972;28;20191;-81
2022/12/09 06:31:09;;;;;;;11.93;9.43;;;;;;;2.49;79.87;94220.50;5030060;28;20226;-80
2022/12/09 06:33:36;;;;;;;11.43;9.47;;;;;;;2.50;79.82;94221.28;5030429;28;20713;-80
2022/12/09 06:36:03;;;;;;;11.30;9.10;;;;;;;2.41;80.21;94223.03;5031875;28;20277;-82
2022/12/09 06:38:29;;;;;;;11.27;8.93;;;;;;;2.44;79.70;94215.09;5025441;28;20206;-81
2022/12/09 06:40:58;;;;;;;29.60;14.73;;;;;;;2.49;100.00;94217.97;5030354;28;20222;-81
2022/12/09 06:43:24;;;;;;;14.87;10.53;;;;;;;2.63;88.84;94226.66;5030687;28;20207;-80
2022/12/09 06:45:52;;;;;;;15.57;10.57;;;;;;;2.69;91.28;94221.72;5037760;28;20208;-82
2022/12/09 06:48:21;;;;;;;11.17;9.23;;;;;;;2.76;86.81;94215.03;5027855;28;20202;-80
2022/12/09 06:50:50;;;;;;;10.77;9.27;;;;;;;2.78;83.88;94217.41;5029847;28;20237;-81
2022/12/09 06:53:17;;;;;;;37.70;28.33;;;;;;;2.82;81.66;94212.81;5029189;28;20633;-80
2022/12/09 06:55:43;;;;;;;43.53;32.23;;;;;;;2.82;80.51;94207.72;5030734;28;20198;-81
2022/12/09 06:58:10;;;;;;;26.23;19.57;;;;;;;2.80;80.53;94212.16;5029795;28;20217;-80
2022/12/09 07:00:38;;;;;;;15.83;13.00;;;;;;;2.84;79.91;94203.28;5031018;28;20214;-81
2022/12/09 07:03:06;;;;;;;14.00;10.50;;;;;;;2.85;79.59;94200.56;5029805;28;20206;-81
2022/12/09 07:05:33;;;;;;;11.20;8.47;;;;;;;2.89;79.43;94196.72;5030602;28;20213;-82
2022/12/09 07:07:59;;;;;;;9.63;8.37;;;;;;;2.87;78.35;94193.59;5030655;28;20206;-81
2022/12/09 07:10:26;;;;;;;12.43;8.47;;;;;;;2.87;78.45;94201.22;5031051;28;20226;-80
2022/12/09 07:12:52;;;;;;;13.00;8.27;;;;;;;2.74;78.40;94218.69;5027752;28;20194;-80
2022/12/09 07:15:18;;;;;;;10.40;8.50;;;;;;;2.53;78.90;94228.56;5029060;28;20577;-79
2022/12/09 07:17:45;;;;;;;12.70;8.23;;;;;;;2.48;79.67;94236.69;5031207;28;20209;-80
2022/12/09 07:20:13;;;;;;;9.93;8.20;;;;;;;2.52;79.84;94239.69;5033935;28;20230;-81
2022/12/09 07:22:39;;;;;;;10.47;8.00;;;;;;;2.45;79.60;94231.13;5029707;28;20195;-81
2022/12/09 07:25:06;;;;;;;10.23;8.20;;;;;;;2.58;80.01;94228.88;5028696;28;20206;-79
2022/12/09 07:27:33;;;;;;;10.00;7.83;;;;;;;2.67;79.56;94228.72;5028724;28;20214;-80
2022/12/09 07:29:59;;;;;;;10.23;8.07;;;;;;;2.70;78.39;94230.91;5029179;28;20222;-80
2022/12/09 07:32:26;;;;;;;8.73;7.50;;;;;;;2.80;78.78;94224.88;5030159;28;20197;-81
2022/12/09 07:34:52;;;;;;;10.47;6.93;;;;;;;2.86;77.96;94222.50;5029022;28;20599;-80
2022/12/09 07:37:20;;;;;;;8.23;7.20;;;;;;;2.92;77.42;94198.94;5028917;28;20205;-81
2022/12/09 07:39:47;;;;;;;10.93;7.67;;;;;;;2.97;77.47;94191.63;5030811;28;20205;-80
2022/12/09 07:42:13;;;;;;;10.33;7.53;;;;;;;2.98;77.17;94195.75;5030949;28;20662;-80
2022/12/09 07:44:40;;;;;;;7.83;7.03;;;;;;;2.96;76.90;94207.84;5028366;28;20198;-80
2022/12/09 07:47:06;;;;;;;8.30;7.10;;;;;;;2.91;76.59;94194.81;5026859;28;20202;-82
2022/12/09 07:49:33;;;;;;;9.87;6.90;;;;;;;2.93;76.52;94194.66;5029733;28;20210;-80
2022/12/09 07:51:59;;;;;;;9.13;7.10;;;;;;;2.90;76.51;94194.97;5028711;28;20226;-79
2022/12/09 07:54:27;;;;;;;8.80;7.80;;;;;;;2.90;76.60;94198.31;5035708;28;20218;-81
2022/12/09 07:56:53;;;;;;;8.57;7.47;;;;;;;2.83;76.87;94197.41;5028375;28;20202;-80
2022/12/09 07:59:20;;;;;;;9.87;8.30;;;;;;;2.81;77.30;94193.44;5032124;28;20182;-82
2022/12/09 08:01:46;;;;;;;18.23;14.97;;;;;;;2.87;77.48;94205.50;5030092;28;20819;-81
2022/12/09 08:04:13;;;;;;;53.87;36.97;;;;;;;2.89;76.95;94201.00;5030064;28;20206;-82
2022/12/09 08:06:39;;;;;;;27.23;19.87;;;;;;;2.84;76.73;94198.97;5038871;28;20569;-80
2022/12/09 08:09:08;;;;;;;13.07;11.20;;;;;;;2.86;76.74;94202.16;5029072;28;20214;-80
2022/12/09 08:11:36;;;;;;;10.80;9.23;;;;;;;2.46;78.29;94208.13;5022072;28;20918;-80
2022/12/09 08:14:04;;;;;;;13.10;9.97;;;;;;;2.51;78.14;94205.88;5037896;28;20217;-81
2022/12/09 08:16:31;;;;;;;14.97;10.13;;;;;;;2.60;78.53;94193.97;5031176;28;20190;-81
2022/12/09 08:18:58;;;;;;;11.30;9.37;;;;;;;2.40;77.94;94188.44;5029653;28;20205;-80
2022/12/09 08:21:29;;;;;;;11.90;9.40;;;;;;;2.27;78.89;94185.59;5030063;28;20768;-82
2022/12/09 08:23:57;;;;;;;14.33;9.07;;;;;;;2.33;79.24;94179.88;5029419;28;20198;-80
2022/12/09 08:26:26;;;;;;;11.87;9.57;;;;;;;2.42;78.43;94181.44;5029180;28;20659;-81
2022/12/09 08:28:54;;;;;;;11.23;9.17;;;;;;;2.42;79.03;94182.25;5025455;28;20198;-80
2022/12/09 08:31:23;;;;;;;12.90;9.23;;;;;;;2.50;78.80;94190.81;5030146;28;20297;-79
2022/12/09 08:33:49;;;;;;;12.97;10.13;;;;;;;2.46;78.22;94192.09;5029381;28;20206;-82
2022/12/09 08:36:17;;;;;;;12.47;10.00;;;;;;;2.37;78.50;94189.53;5024952;28;20211;-80
2022/12/09 08:38:45;;;;;;;12.50;10.03;;;;;;;2.29;79.46;94186.25;5028794;28;20198;-81
2022/12/09 08:41:14;;;;;;;13.50;10.83;;;;;;;2.32;79.56;94176.53;5031132;28;20222;-80
2022/12/09 08:43:42;;;;;;;14.50;10.03;;;;;;;2.31;79.52;94179.25;5030367;28;20595;-81
2022/12/09 08:46:10;;;;;;;16.03;11.90;;;;;;;2.25;79.67;94178.13;5027717;28;20208;-82
2022/12/09 08:48:37;;;;;;;15.40;11.40;;;;;;;2.25;80.13;94184.97;5015501;28;20206;-80
2022/12/09 08:51:04;;;;;;;17.37;12.40;;;;;;;2.19;80.94;94165.28;5021072;28;20241;-81
2022/12/09 08:53:31;;;;;;;16.97;12.83;;;;;;;2.27;81.01;94158.47;5010982;28;20218;-81
2022/12/09 08:55:58;;;;;;;14.37;11.63;;;;;;;2.40;80.24;94163.03;5010610;28;20203;-80
2022/12/09 08:58:24;;;;;;;16.50;12.47;;;;;;;2.58;80.29;94168.72;5014588;28;20202;-81
2022/12/09 09:00:51;;;;;;;14.67;11.13;;;;;;;2.71;79.58;94168.19;5029867;28;20585;-81
2022/12/09 09:03:19;;;;;;;13.43;11.63;;;;;;;2.81;78.74;94163.72;5026556;28;20289;-80
2022/12/09 09:05:45;;;;;;;15.17;11.77;;;;;;;2.75;77.39;94174.53;5027767;28;20218;-81
2022/12/09 09:08:11;;;;;;;14.43;11.70;;;;;;;2.54;78.74;94161.56;5029288;28;20197;-82
2022/12/09 09:10:38;;;;;;;20.33;15.00;;;;;;;2.41;79.88;94167.97;5029469;28;20225;-80
2022/12/09 09:13:04;;;;;;;35.97;26.77;;;;;;;2.40;79.75;94170.66;5032412;28;20206;-81
2022/12/09 09:15:31;;;;;;;16.57;12.33;;;;;;;2.20;79.27;94189.72;5034290;28;20229;-81
2022/12/09 09:17:59;;;;;;;16.37;12.87;;;;;;;2.10;80.18;94184.81;5033816;28;20205;-79
2022/12/09 09:20:27;;;;;;;14.23;11.47;;;;;;;2.00;80.97;94192.59;5029888;28;20221;-80
2022/12/09 09:22:53;;;;;;;18.27;12.17;;;;;;;2.11;80.92;94181.34;5014562;28;20203;-81
2022/12/09 09:25:20;;;;;;;16.17;13.03;;;;;;;2.30;80.50;94177.66;5013631;28;20198;-80
2022/12/09 09:27:46;;;;;;;15.20;12.10;;;;;;;2.27;79.96;94178.78;5013713;28;20218;-79
2022/12/09 09:30:13;;;;;;;18.17;12.63;;;;;;;2.17;80.45;94169.72;5014386;28;20253;-81
2022/12/09 09:32:39;;;;;;;15.63;12.63;;;;;;;2.06;81.78;94176.72;5027831;28;20214;-81
2022/12/09 09:35:06;;;;;;;18.17;13.43;;;;;;;2.15;81.46;94181.78;5033138;28;20230;-82
2022/12/09 09:37:34;;;;;;;19.53;13.73;;;;;;;2.13;81.58;94178.59;5016750;28;20203;-81
2022/12/09 09:40:00;;;;;;;16.60;12.90;;;;;;;2.19;81.67;94186.38;5013572;28;20229;-82
2022/12/09 09:42:35;;;;;;;18.00;13.63;;;;;;;2.22;80.92;94175.91;5013383;28;20199;-80
2022/12/09 09:45:05;;;;;;;19.57;13.30;;;;;;;2.42;80.19;94167.00;5013595;28;20189;-81
2022/12/09 09:47:36;;;;;;;17.20;13.03;;;;;;;2.52;80.34;94146.50;5012805;28;20195;-81
2022/12/09 09:50:07;;;;;;;17.43;13.73;;;;;;;2.64;79.31;94149.50;5031767;28;20225;-81
2022/12/09 09:52:41;;;;;;;16.90;13.27;;;;;;;2.50;80.03;94150.19;5032710;28;20552;-81
2022/12/09 09:55:14;;;;;;;18.17;14.10;;;;;;;2.62;80.24;94139.50;5026315;28;20207;-81
2022/12/09 09:57:46;;;;;;;17.93;14.03;;;;;;;2.63;79.27;94135.22;5032166;28;20202;-81
2022/12/09 10:00:21;;;;;;;18.20;14.57;;;;;;;2.54;79.85;94136.16;5033226;28;20290;-81
2022/12/09 10:02:57;;;;;;;16.60;13.33;;;;;;;2.58;79.33;94127.28;5033242;28;20217;-80
2022/12/09 10:05:29;;;;;;;19.03;12.77;;;;;;;2.55;79.61;94127.59;5031978;28;20186;-83
2022/12/09 10:08:05;;;;;;;77.40;49.90;;;;;;;2.51;79.70;94127.13;5031766;28;20277;-80
2022/12/09 10:10:46;;;;;;;18.67;13.93;;;;;;;2.50;79.14;94120.50;5032784;28;20225;-80
2022/12/09 10:13:25;;;;;;;16.60;12.97;;;;;;;2.44;80.09;94110.97;5033093;28;20193;-81
2022/12/09 10:16:00;;;;;;;17.30;13.20;;;;;;;2.30;80.00;94111.66;5032419;28;20182;-81
2022/12/09 10:18:32;;;;;;;16.93;12.90;;;;;;;2.22;80.14;94109.13;5031845;28;20213;-81
2022/12/09 10:20:59;;;;;;;18.53;13.20;;;;;;;2.11;80.96;94122.94;5033026;28;20535;-81
2022/12/09 10:23:31;;;;;;;16.50;12.97;;;;;;;2.08;80.68;94113.13;5031456;28;20202;-80
2022/12/09 10:26:02;;;;;;;18.00;12.97;;;;;;;2.20;80.50;94111.81;5032530;28;20221;-81
2022/12/09 10:28:33;;;;;;;18.60;13.60;;;;;;;2.30;80.59;94114.19;5032310;28;20703;-80
2022/12/09 10:31:00;;;;;;;19.97;14.13;;;;;;;2.39;80.63;94110.66;5031627;28;20233;-81
2022/12/09 10:33:28;;;;;;;20.57;14.50;;;;;;;2.44;80.40;94108.44;5023654;28;20552;-81
2022/12/09 10:35:55;;;;;;;18.83;14.03;;;;;;;2.38;80.38;94107.31;5032094;28;20206;-80
2022/12/09 10:38:22;;;;;;;17.87;14.20;;;;;;;2.38;80.82;94109.06;5031633;28;20202;-80
2022/12/09 10:41:00;;;;;;;18.90;14.67;;;;;;;2.35;80.22;94102.56;5031699;28;20218;-80
2022/12/09 10:43:35;;;;;;;18.37;13.57;;;;;;;2.38;81.30;94096.38;5031602;28;20202;-80
2022/12/09 10:46:04;;;;;;;21.33;18.90;;;;;;;2.58;80.39;94096.78;5030995;28;20440;-81
2022/12/09 10:48:32;;;;;;;19.97;15.17;;;;;;;2.61;79.67;94097.25;5030648;28;20214;-80
2022/12/09 10:51:02;;;;;;;19.50;14.53;;;;;;;2.61;79.57;94097.25;5033589;28;20222;-80
2022/12/09 10:53:30;;;;;;;19.47;14.80;;;;;;;2.64;79.55;94094.41;5025124;28;20194;-79
2022/12/09 10:56:00;;;;;;;20.80;15.00;;;;;;;2.72;79.61;94091.81;5026464;28;20236;-79
2022/12/09 10:58:29;;;;;;;21.60;14.27;;;;;;;2.85;78.58;94082.88;5034736;28;20551;-81
2022/12/09 11:01:00;;;;;;;17.10;13.57;;;;;;;2.84;78.13;94083.84;5036013;28;20210;-80
2022/12/09 11:03:30;;;;;;;20.83;13.87;;;;;;;2.87;78.30;94080.97;5031889;28;20190;-82
2022/12/09 11:06:00;;;;;;;17.07;13.73;;;;;;;2.92;78.31;94071.84;5031317;28;20194;-81
2022/12/09 11:08:27;;;;;;;17.60;13.80;;;;;;;2.93;78.34;94068.34;5032640;28;20198;-82
2022/12/09 11:10:54;;;;;;;19.70;14.03;;;;;;;2.88;78.40;94059.69;5040676;28;20217;-80
2022/12/09 11:13:35;;;;;;;40.13;28.47;;;;;;;2.83;77.93;94056.84;5046644;28;20194;-81
2022/12/09 11:16:03;;;;;;;22.37;16.70;;;;;;;2.70;78.53;94055.59;5029933;28;20728;-80
2022/12/09 11:18:36;;;;;;;19.57;14.63;;;;;;;2.62;79.35;94044.72;5039815;28;20198;-81
2022/12/09 11:21:08;;;;;;;19.83;14.33;;;;;;;2.59;79.16;94045.03;5029025;28;20290;-81
2022/12/09 11:23:35;;;;;;;17.97;13.67;;;;;;;2.71;78.91;94043.69;5038972;28;20206;-81
2022/12/09 11:26:06;;;;;;;18.53;14.07;;;;;;;2.69;79.15;94041.31;5031449;28;20202;-82
2022/12/09 11:28:36;;;;;;;19.23;14.50;;;;;;;2.82;78.94;94032.38;5035036;28;20199;-80
2022/12/09 11:31:05;;;;;;;20.57;15.07;;;;;;;2.71;78.99;94029.25;5037189;28;20210;-81
2022/12/09 11:33:34;;;;;;;19.00;14.00;;;;;;;2.81;79.41;94039.22;5042999;28;20202;-80